sensor_id;sensor_type;location;lat;lon;timestamp;temperature;humidity
23748;DHT22;12054;53.662;10.126;2023-06-26T00:02:12;23.50;98.80
23748;DHT22;12054;53.662;10.126;2023-06-26T00:04:37;23.50;98.80
23748;DHT22;12054;53.662;10.126;2023-06-26T00:07:04;23.50;98.80
23748;DHT22;12054;53.662;10.126;2023-06-26T00:09:29;23.50;98.90
23748;DHT22;12054;53.662;10.126;2023-06-26T00:11:55;23.40;98.90
23748;DHT22;12054;53.662;10.126;2023-06-26T00:14:21;23.40;99.00
23748;DHT22;12054;53.662;10.126;2023-06-26T00:16:47;23.40;99.10
23748;DHT22;12054;53.662;10.126;2023-06-26T00:19:15;23.30;99.10
23748;DHT22;12054;53.662;10.126;2023-06-26T00:21:40;23.30;99.20
23748;DHT22;12054;53.662;10.126;2023-06-26T00:24:14;23.20;99.20
23748;DHT22;12054;53.662;10.126;2023-06-26T00:26:39;23.20;99.30
23748;DHT22;12054;53.662;10.126;2023-06-26T00:29:05;23.20;99.40
23748;DHT22;12054;53.662;10.126;2023-06-26T00:31:30;23.10;99.50
23748;DHT22;12054;53.662;10.126;2023-06-26T00:33:56;23.10;99.50
23748;DHT22;12054;53.662;10.126;2023-06-26T00:36:22;23.00;99.60
23748;DHT22;12054;53.662;10.126;2023-06-26T00:38:52;23.00;99.70
23748;DHT22;12054;53.662;10.126;2023-06-26T00:41:17;23.00;99.80
23748;DHT22;12054;53.662;10.126;2023-06-26T00:43:43;23.00;99.90
23748;DHT22;12054;53.662;10.126;2023-06-26T00:46:10;22.90;99.90
23748;DHT22;12054;53.662;10.126;2023-06-26T00:48:36;22.90;99.90
23748;DHT22;12054;53.662;10.126;2023-06-26T00:51:02;22.90;99.90
23748;DHT22;12054;53.662;10.126;2023-06-26T00:53:28;22.90;99.90
23748;DHT22;12054;53.662;10.126;2023-06-26T00:55:54;22.80;99.90
23748;DHT22;12054;53.662;10.126;2023-06-26T00:58:22;22.80;99.90
23748;DHT22;12054;53.662;10.126;2023-06-26T01:00:49;22.80;99.90
23748;DHT22;12054;53.662;10.126;2023-06-26T01:03:15;22.80;99.90
23748;DHT22;12054;53.662;10.126;2023-06-26T01:05:41;22.70;99.90
23748;DHT22;12054;53.662;10.126;2023-06-26T01:08:07;22.70;99.90
23748;DHT22;12054;53.662;10.126;2023-06-26T01:10:34;22.70;99.90
23748;DHT22;12054;53.662;10.126;2023-06-26T01:12:59;22.60;99.90
23748;DHT22;12054;53.662;10.126;2023-06-26T01:15:25;22.60;99.90
23748;DHT22;12054;53.662;10.126;2023-06-26T01:17:51;22.60;99.90
23748;DHT22;12054;53.662;10.126;2023-06-26T01:20:17;22.60;99.90
23748;DHT22;12054;53.662;10.126;2023-06-26T01:22:57;22.50;99.90
23748;DHT22;12054;53.662;10.126;2023-06-26T01:28:22;22.40;99.90
23748;DHT22;12054;53.662;10.126;2023-06-26T01:30:49;22.40;99.90
23748;DHT22;12054;53.662;10.126;2023-06-26T01:33:16;22.40;99.90
23748;DHT22;12054;53.662;10.126;2023-06-26T01:35:42;22.30;99.90
23748;DHT22;12054;53.662;10.126;2023-06-26T01:38:21;22.30;99.90
23748;DHT22;12054;53.662;10.126;2023-06-26T01:40:48;22.30;99.90
23748;DHT22;12054;53.662;10.126;2023-06-26T01:43:29;22.30;99.90
23748;DHT22;12054;53.662;10.126;2023-06-26T01:46:05;22.20;99.90
23748;DHT22;12054;53.662;10.126;2023-06-26T01:48:37;22.20;99.90
23748;DHT22;12054;53.662;10.126;2023-06-26T01:51:06;22.20;99.90
23748;DHT22;12054;53.662;10.126;2023-06-26T01:53:38;22.20;99.90
23748;DHT22;12054;53.662;10.126;2023-06-26T01:56:08;22.10;99.90
23748;DHT22;12054;53.662;10.126;2023-06-26T01:58:40;22.10;99.90
23748;DHT22;12054;53.662;10.126;2023-06-26T02:01:08;22.10;99.90
23748;DHT22;12054;53.662;10.126;2023-06-26T02:03:34;22.10;99.90
23748;DHT22;12054;53.662;10.126;2023-06-26T02:05:59;22.00;99.90
23748;DHT22;12054;53.662;10.126;2023-06-26T02:08:25;22.00;99.90
23748;DHT22;12054;53.662;10.126;2023-06-26T02:10:50;22.00;99.90
23748;DHT22;12054;53.662;10.126;2023-06-26T02:13:16;21.90;99.90
23748;DHT22;12054;53.662;10.126;2023-06-26T02:15:41;21.90;99.90
23748;DHT22;12054;53.662;10.126;2023-06-26T02:18:07;21.90;99.90
23748;DHT22;12054;53.662;10.126;2023-06-26T02:20:32;21.90;99.90
23748;DHT22;12054;53.662;10.126;2023-06-26T02:22:58;21.90;99.90
23748;DHT22;12054;53.662;10.126;2023-06-26T02:25:24;21.80;99.90
23748;DHT22;12054;53.662;10.126;2023-06-26T02:27:50;21.80;99.90
23748;DHT22;12054;53.662;10.126;2023-06-26T02:30:15;21.80;99.90
23748;DHT22;12054;53.662;10.126;2023-06-26T02:32:41;21.80;99.90
23748;DHT22;12054;53.662;10.126;2023-06-26T02:35:07;21.80;99.90
23748;DHT22;12054;53.662;10.126;2023-06-26T02:37:32;21.80;99.90
23748;DHT22;12054;53.662;10.126;2023-06-26T02:39:58;21.70;99.90
23748;DHT22;12054;53.662;10.126;2023-06-26T02:42:23;21.70;99.90
23748;DHT22;12054;53.662;10.126;2023-06-26T02:44:49;21.70;99.90
23748;DHT22;12054;53.662;10.126;2023-06-26T02:47:14;21.70;99.90
23748;DHT22;12054;53.662;10.126;2023-06-26T02:49:40;21.60;99.90
23748;DHT22;12054;53.662;10.126;2023-06-26T02:52:05;21.60;99.90
23748;DHT22;12054;53.662;10.126;2023-06-26T02:54:31;21.60;99.90
23748;DHT22;12054;53.662;10.126;2023-06-26T02:56:56;21.60;99.90
23748;DHT22;12054;53.662;10.126;2023-06-26T02:59:22;21.60;99.90
23748;DHT22;12054;53.662;10.126;2023-06-26T03:01:47;21.50;99.90
23748;DHT22;12054;53.662;10.126;2023-06-26T03:04:13;21.50;99.90
23748;DHT22;12054;53.662;10.126;2023-06-26T03:06:40;21.60;99.90
23748;DHT22;12054;53.662;10.126;2023-06-26T03:09:06;21.50;99.90
23748;DHT22;12054;53.662;10.126;2023-06-26T03:11:31;21.50;99.90
23748;DHT22;12054;53.662;10.126;2023-06-26T03:13:57;21.40;99.90
23748;DHT22;12054;53.662;10.126;2023-06-26T03:16:22;21.40;99.90
23748;DHT22;12054;53.662;10.126;2023-06-26T03:18:47;21.40;99.90
23748;DHT22;12054;53.662;10.126;2023-06-26T03:21:13;21.40;99.90
23748;DHT22;12054;53.662;10.126;2023-06-26T03:23:38;21.40;99.90
23748;DHT22;12054;53.662;10.126;2023-06-26T03:26:04;21.40;99.90
23748;DHT22;12054;53.662;10.126;2023-06-26T03:28:29;21.40;99.90
23748;DHT22;12054;53.662;10.126;2023-06-26T03:30:56;21.30;99.90
23748;DHT22;12054;53.662;10.126;2023-06-26T03:33:22;21.30;99.90
23748;DHT22;12054;53.662;10.126;2023-06-26T03:35:47;21.30;99.90
23748;DHT22;12054;53.662;10.126;2023-06-26T03:38:13;21.30;99.90
23748;DHT22;12054;53.662;10.126;2023-06-26T03:40:38;21.30;99.90
23748;DHT22;12054;53.662;10.126;2023-06-26T03:43:04;21.30;99.90
23748;DHT22;12054;53.662;10.126;2023-06-26T03:45:29;21.30;99.90
23748;DHT22;12054;53.662;10.126;2023-06-26T03:47:55;21.30;99.90
23748;DHT22;12054;53.662;10.126;2023-06-26T03:50:20;21.20;99.90
23748;DHT22;12054;53.662;10.126;2023-06-26T03:52:46;21.20;99.90
23748;DHT22;12054;53.662;10.126;2023-06-26T03:55:11;21.20;99.90
23748;DHT22;12054;53.662;10.126;2023-06-26T03:57:37;21.20;99.90
23748;DHT22;12054;53.662;10.126;2023-06-26T04:00:03;21.20;99.90
23748;DHT22;12054;53.662;10.126;2023-06-26T04:02:34;21.20;99.90
23748;DHT22;12054;53.662;10.126;2023-06-26T04:05:00;21.20;99.90
23748;DHT22;12054;53.662;10.126;2023-06-26T04:07:26;21.20;99.90
23748;DHT22;12054;53.662;10.126;2023-06-26T04:09:51;21.10;99.90
23748;DHT22;12054;53.662;10.126;2023-06-26T04:12:17;21.10;99.90
23748;DHT22;12054;53.662;10.126;2023-06-26T04:14:42;21.10;99.90
23748;DHT22;12054;53.662;10.126;2023-06-26T04:17:08;21.10;99.90
23748;DHT22;12054;53.662;10.126;2023-06-26T04:19:33;21.10;99.90
23748;DHT22;12054;53.662;10.126;2023-06-26T04:22:01;21.10;99.90
23748;DHT22;12054;53.662;10.126;2023-06-26T04:24:26;21.10;99.90
23748;DHT22;12054;53.662;10.126;2023-06-26T04:26:52;21.10;99.90
23748;DHT22;12054;53.662;10.126;2023-06-26T04:29:17;21.10;99.90
23748;DHT22;12054;53.662;10.126;2023-06-26T04:31:43;21.10;99.90
23748;DHT22;12054;53.662;10.126;2023-06-26T04:34:12;21.10;99.90
23748;DHT22;12054;53.662;10.126;2023-06-26T04:36:38;21.10;99.90
23748;DHT22;12054;53.662;10.126;2023-06-26T04:39:04;21.10;99.90
23748;DHT22;12054;53.662;10.126;2023-06-26T04:41:30;21.10;99.90
23748;DHT22;12054;53.662;10.126;2023-06-26T04:43:55;21.10;99.90
23748;DHT22;12054;53.662;10.126;2023-06-26T04:46:21;21.10;99.90
23748;DHT22;12054;53.662;10.126;2023-06-26T04:48:46;21.10;99.90
23748;DHT22;12054;53.662;10.126;2023-06-26T04:51:12;21.10;99.90
23748;DHT22;12054;53.662;10.126;2023-06-26T04:53:37;21.20;99.90
23748;DHT22;12054;53.662;10.126;2023-06-26T04:56:03;21.10;99.90
23748;DHT22;12054;53.662;10.126;2023-06-26T04:58:30;21.20;99.90
23748;DHT22;12054;53.662;10.126;2023-06-26T05:00:55;21.20;99.90
23748;DHT22;12054;53.662;10.126;2023-06-26T05:03:22;21.20;99.90
23748;DHT22;12054;53.662;10.126;2023-06-26T05:05:47;21.20;99.90
23748;DHT22;12054;53.662;10.126;2023-06-26T05:08:15;21.20;99.90
23748;DHT22;12054;53.662;10.126;2023-06-26T05:10:41;21.20;99.90
23748;DHT22;12054;53.662;10.126;2023-06-26T05:13:06;21.30;99.90
23748;DHT22;12054;53.662;10.126;2023-06-26T05:15:32;21.30;99.90
23748;DHT22;12054;53.662;10.126;2023-06-26T05:17:57;21.30;99.90
23748;DHT22;12054;53.662;10.126;2023-06-26T05:20:23;21.30;99.90
23748;DHT22;12054;53.662;10.126;2023-06-26T05:22:49;21.30;99.90
23748;DHT22;12054;53.662;10.126;2023-06-26T05:25:15;21.30;99.90
23748;DHT22;12054;53.662;10.126;2023-06-26T05:27:41;21.30;99.90
23748;DHT22;12054;53.662;10.126;2023-06-26T05:30:07;21.40;99.90
23748;DHT22;12054;53.662;10.126;2023-06-26T05:32:34;21.40;99.90
23748;DHT22;12054;53.662;10.126;2023-06-26T05:35:02;21.40;99.90
23748;DHT22;12054;53.662;10.126;2023-06-26T05:37:30;21.40;99.90
23748;DHT22;12054;53.662;10.126;2023-06-26T05:39:56;21.40;99.90
23748;DHT22;12054;53.662;10.126;2023-06-26T05:42:22;21.50;99.90
23748;DHT22;12054;53.662;10.126;2023-06-26T05:44:48;21.50;99.90
23748;DHT22;12054;53.662;10.126;2023-06-26T05:47:13;21.50;99.90
23748;DHT22;12054;53.662;10.126;2023-06-26T05:49:39;21.60;99.90
23748;DHT22;12054;53.662;10.126;2023-06-26T05:52:05;21.60;99.90
23748;DHT22;12054;53.662;10.126;2023-06-26T05:54:31;21.70;99.90
23748;DHT22;12054;53.662;10.126;2023-06-26T05:56:57;21.70;99.90
23748;DHT22;12054;53.662;10.126;2023-06-26T05:59:26;21.80;99.90
23748;DHT22;12054;53.662;10.126;2023-06-26T06:01:52;21.80;99.90
23748;DHT22;12054;53.662;10.126;2023-06-26T06:04:18;21.90;99.90
23748;DHT22;12054;53.662;10.126;2023-06-26T06:06:43;21.90;99.90
23748;DHT22;12054;53.662;10.126;2023-06-26T06:09:09;21.90;99.90
23748;DHT22;12054;53.662;10.126;2023-06-26T06:11:34;22.00;99.90
23748;DHT22;12054;53.662;10.126;2023-06-26T06:14:00;22.00;99.90
23748;DHT22;12054;53.662;10.126;2023-06-26T06:16:26;22.00;99.90
23748;DHT22;12054;53.662;10.126;2023-06-26T06:18:54;22.10;99.90
23748;DHT22;12054;53.662;10.126;2023-06-26T06:21:19;22.10;99.90
23748;DHT22;12054;53.662;10.126;2023-06-26T06:23:45;22.10;99.90
23748;DHT22;12054;53.662;10.126;2023-06-26T06:26:11;22.20;99.90
23748;DHT22;12054;53.662;10.126;2023-06-26T06:28:36;22.20;99.90
23748;DHT22;12054;53.662;10.126;2023-06-26T06:31:02;22.30;99.90
23748;DHT22;12054;53.662;10.126;2023-06-26T06:33:27;22.40;99.90
23748;DHT22;12054;53.662;10.126;2023-06-26T06:35:53;22.40;99.90
23748;DHT22;12054;53.662;10.126;2023-06-26T06:38:18;22.50;99.90
23748;DHT22;12054;53.662;10.126;2023-06-26T06:40:44;22.50;99.90
23748;DHT22;12054;53.662;10.126;2023-06-26T06:43:09;22.60;99.90
23748;DHT22;12054;53.662;10.126;2023-06-26T06:45:37;22.70;99.90
23748;DHT22;12054;53.662;10.126;2023-06-26T06:48:03;22.80;99.90
23748;DHT22;12054;53.662;10.126;2023-06-26T06:50:29;22.80;99.90
23748;DHT22;12054;53.662;10.126;2023-06-26T06:52:55;22.90;99.90
23748;DHT22;12054;53.662;10.126;2023-06-26T06:55:20;22.90;99.90
23748;DHT22;12054;53.662;10.126;2023-06-26T06:57:46;23.10;99.90
23748;DHT22;12054;53.662;10.126;2023-06-26T07:00:13;23.20;99.90
23748;DHT22;12054;53.662;10.126;2023-06-26T07:02:46;23.30;99.90
23748;DHT22;12054;53.662;10.126;2023-06-26T07:05:12;23.40;99.90
23748;DHT22;12054;53.662;10.126;2023-06-26T07:07:38;23.40;99.90
23748;DHT22;12054;53.662;10.126;2023-06-26T07:10:06;23.50;99.90
23748;DHT22;12054;53.662;10.126;2023-06-26T07:12:33;23.60;99.90
23748;DHT22;12054;53.662;10.126;2023-06-26T07:15:00;23.70;99.90
23748;DHT22;12054;53.662;10.126;2023-06-26T07:17:26;23.90;99.90
23748;DHT22;12054;53.662;10.126;2023-06-26T07:19:52;24.00;99.90
23748;DHT22;12054;53.662;10.126;2023-06-26T07:22:17;24.20;99.90
23748;DHT22;12054;53.662;10.126;2023-06-26T07:24:46;24.30;99.90
23748;DHT22;12054;53.662;10.126;2023-06-26T07:27:12;24.60;99.90
23748;DHT22;12054;53.662;10.126;2023-06-26T07:29:37;24.60;99.90
23748;DHT22;12054;53.662;10.126;2023-06-26T07:32:03;24.80;99.90
23748;DHT22;12054;53.662;10.126;2023-06-26T07:34:29;24.80;99.90
23748;DHT22;12054;53.662;10.126;2023-06-26T07:36:55;25.00;99.90
23748;DHT22;12054;53.662;10.126;2023-06-26T07:39:20;25.10;99.90
23748;DHT22;12054;53.662;10.126;2023-06-26T07:41:45;25.20;99.90
23748;DHT22;12054;53.662;10.126;2023-06-26T07:44:11;25.30;99.90
23748;DHT22;12054;53.662;10.126;2023-06-26T07:46:37;25.40;99.90
23748;DHT22;12054;53.662;10.126;2023-06-26T07:49:02;25.50;99.90
23748;DHT22;12054;53.662;10.126;2023-06-26T07:51:28;25.70;99.90
23748;DHT22;12054;53.662;10.126;2023-06-26T07:53:53;25.70;99.90
23748;DHT22;12054;53.662;10.126;2023-06-26T07:56:19;25.80;99.90
23748;DHT22;12054;53.662;10.126;2023-06-26T07:58:45;25.90;99.90
23748;DHT22;12054;53.662;10.126;2023-06-26T08:01:12;26.00;99.90
23748;DHT22;12054;53.662;10.126;2023-06-26T08:03:38;26.00;99.90
23748;DHT22;12054;53.662;10.126;2023-06-26T08:06:03;26.10;99.90
23748;DHT22;12054;53.662;10.126;2023-06-26T08:08:29;26.30;99.90
23748;DHT22;12054;53.662;10.126;2023-06-26T08:10:55;26.30;99.90
23748;DHT22;12054;53.662;10.126;2023-06-26T08:13:20;26.40;99.60
23748;DHT22;12054;53.662;10.126;2023-06-26T08:15:46;26.40;99.50
23748;DHT22;12054;53.662;10.126;2023-06-26T08:18:11;26.50;99.60
23748;DHT22;12054;53.662;10.126;2023-06-26T08:20:37;26.60;99.70
23748;DHT22;12054;53.662;10.126;2023-06-26T08:23:04;26.80;99.20
23748;DHT22;12054;53.662;10.126;2023-06-26T08:25:29;26.80;98.90
23748;DHT22;12054;53.662;10.126;2023-06-26T08:27:55;26.90;98.80
23748;DHT22;12054;53.662;10.126;2023-06-26T08:30:21;26.90;98.60
23748;DHT22;12054;53.662;10.126;2023-06-26T08:32:47;26.90;98.40
23748;DHT22;12054;53.662;10.126;2023-06-26T08:35:12;27.00;98.30
23748;DHT22;12054;53.662;10.126;2023-06-26T08:37:38;27.10;98.40
23748;DHT22;12054;53.662;10.126;2023-06-26T08:40:05;27.20;98.50
23748;DHT22;12054;53.662;10.126;2023-06-26T08:42:31;27.30;98.40
23748;DHT22;12054;53.662;10.126;2023-06-26T08:44:57;27.40;98.10
23748;DHT22;12054;53.662;10.126;2023-06-26T08:47:23;27.50;97.90
23748;DHT22;12054;53.662;10.126;2023-06-26T08:55:43;27.60;97.50
23748;DHT22;12054;53.662;10.126;2023-06-26T08:58:10;27.70;97.40
23748;DHT22;12054;53.662;10.126;2023-06-26T09:00:38;27.70;97.20
23748;DHT22;12054;53.662;10.126;2023-06-26T09:03:04;27.80;97.10
23748;DHT22;12054;53.662;10.126;2023-06-26T09:05:29;27.80;97.00
23748;DHT22;12054;53.662;10.126;2023-06-26T09:07:57;27.80;96.90
23748;DHT22;12054;53.662;10.126;2023-06-26T09:10:24;27.90;97.30
23748;DHT22;12054;53.662;10.126;2023-06-26T09:12:50;27.90;96.80
23748;DHT22;12054;53.662;10.126;2023-06-26T09:15:15;28.00;96.60
23748;DHT22;12054;53.662;10.126;2023-06-26T09:17:42;28.10;96.60
23748;DHT22;12054;53.662;10.126;2023-06-26T09:20:08;28.30;96.40
23748;DHT22;12054;53.662;10.126;2023-06-26T09:22:41;28.50;96.20
23748;DHT22;12054;53.662;10.126;2023-06-26T09:25:07;28.70;96.10
23748;DHT22;12054;53.662;10.126;2023-06-26T09:27:34;28.80;95.90
23748;DHT22;12054;53.662;10.126;2023-06-26T09:30:02;29.00;95.70
23748;DHT22;12054;53.662;10.126;2023-06-26T09:32:29;29.10;95.60
23748;DHT22;12054;53.662;10.126;2023-06-26T09:34:55;29.20;95.40
23748;DHT22;12054;53.662;10.126;2023-06-26T09:37:35;29.20;95.20
23748;DHT22;12054;53.662;10.126;2023-06-26T09:40:08;29.20;95.20
23748;DHT22;12054;53.662;10.126;2023-06-26T09:42:37;29.10;95.20
23748;DHT22;12054;53.662;10.126;2023-06-26T09:45:03;29.00;95.20
23748;DHT22;12054;53.662;10.126;2023-06-26T09:47:30;29.00;95.20
23748;DHT22;12054;53.662;10.126;2023-06-26T09:50:02;28.90;95.30
23748;DHT22;12054;53.662;10.126;2023-06-26T09:52:31;28.80;95.30
23748;DHT22;12054;53.662;10.126;2023-06-26T09:55:28;28.70;95.40
23748;DHT22;12054;53.662;10.126;2023-06-26T09:58:06;28.60;95.50
23748;DHT22;12054;53.662;10.126;2023-06-26T10:00:37;28.40;95.60
23748;DHT22;12054;53.662;10.126;2023-06-26T10:03:02;28.40;95.80
23748;DHT22;12054;53.662;10.126;2023-06-26T10:05:36;28.30;95.80
23748;DHT22;12054;53.662;10.126;2023-06-26T10:08:10;28.20;95.80
23748;DHT22;12054;53.662;10.126;2023-06-26T10:10:37;28.10;95.70
23748;DHT22;12054;53.662;10.126;2023-06-26T10:13:47;28.30;95.80
23748;DHT22;12054;53.662;10.126;2023-06-26T10:16:39;28.00;96.20
23748;DHT22;12054;53.662;10.126;2023-06-26T10:19:22;28.00;96.00
23748;DHT22;12054;53.662;10.126;2023-06-26T10:21:54;27.90;96.10
23748;DHT22;12054;53.662;10.126;2023-06-26T10:27:28;27.80;96.30
23748;DHT22;12054;53.662;10.126;2023-06-26T10:30:06;27.80;96.70
23748;DHT22;12054;53.662;10.126;2023-06-26T10:32:37;27.70;97.40
23748;DHT22;12054;53.662;10.126;2023-06-26T10:35:07;27.60;97.80
23748;DHT22;12054;53.662;10.126;2023-06-26T10:37:47;27.20;98.10
23748;DHT22;12054;53.662;10.126;2023-06-26T10:40:14;27.40;98.70
23748;DHT22;12054;53.662;10.126;2023-06-26T10:42:40;27.30;99.00
23748;DHT22;12054;53.662;10.126;2023-06-26T10:45:19;27.20;99.40
23748;DHT22;12054;53.662;10.126;2023-06-26T10:47:47;27.00;99.80
23748;DHT22;12054;53.662;10.126;2023-06-26T10:50:27;27.10;99.90
23748;DHT22;12054;53.662;10.126;2023-06-26T11:03:41;26.50;99.90
23748;DHT22;12054;53.662;10.126;2023-06-26T11:06:22;26.40;99.90
23748;DHT22;12054;53.662;10.126;2023-06-26T11:09:14;26.30;99.90
23748;DHT22;12054;53.662;10.126;2023-06-26T11:14:38;26.10;99.90
23748;DHT22;12054;53.662;10.126;2023-06-26T11:17:08;26.10;99.90
23748;DHT22;12054;53.662;10.126;2023-06-26T11:19:34;26.20;99.90
23748;DHT22;12054;53.662;10.126;2023-06-26T11:22:06;26.10;99.90
23748;DHT22;12054;53.662;10.126;2023-06-26T11:24:32;26.00;99.90
23748;DHT22;12054;53.662;10.126;2023-06-26T11:27:00;25.90;99.90
23748;DHT22;12054;53.662;10.126;2023-06-26T11:29:35;25.90;99.90
23748;DHT22;12054;53.662;10.126;2023-06-26T11:32:45;26.00;99.90
23748;DHT22;12054;53.662;10.126;2023-06-26T11:34:53;25.90;99.90
23748;DHT22;12054;53.662;10.126;2023-06-26T11:37:20;25.90;99.90
23748;DHT22;12054;53.662;10.126;2023-06-26T11:39:46;25.80;99.90
23748;DHT22;12054;53.662;10.126;2023-06-26T11:42:11;25.80;99.90
23748;DHT22;12054;53.662;10.126;2023-06-26T11:44:41;25.80;99.90
23748;DHT22;12054;53.662;10.126;2023-06-26T11:47:18;25.80;99.90
23748;DHT22;12054;53.662;10.126;2023-06-26T11:49:45;25.80;99.90
23748;DHT22;12054;53.662;10.126;2023-06-26T11:52:11;25.80;99.90
23748;DHT22;12054;53.662;10.126;2023-06-26T11:54:37;25.80;99.90
23748;DHT22;12054;53.662;10.126;2023-06-26T11:57:04;25.90;99.90
23748;DHT22;12054;53.662;10.126;2023-06-26T11:59:39;25.90;99.90
23748;DHT22;12054;53.662;10.126;2023-06-26T12:02:09;25.90;99.90
23748;DHT22;12054;53.662;10.126;2023-06-26T12:04:41;25.90;99.90
23748;DHT22;12054;53.662;10.126;2023-06-26T12:07:08;25.90;99.90
23748;DHT22;12054;53.662;10.126;2023-06-26T12:09:43;25.90;99.90
23748;DHT22;12054;53.662;10.126;2023-06-26T12:12:10;25.90;99.90
23748;DHT22;12054;53.662;10.126;2023-06-26T12:14:36;26.00;99.90
23748;DHT22;12054;53.662;10.126;2023-06-26T12:17:09;25.90;99.90
23748;DHT22;12054;53.662;10.126;2023-06-26T12:19:42;26.00;99.90
23748;DHT22;12054;53.662;10.126;2023-06-26T12:22:09;26.00;99.90
23748;DHT22;12054;53.662;10.126;2023-06-26T12:24:38;26.10;99.90
23748;DHT22;12054;53.662;10.126;2023-06-26T12:27:08;26.10;99.90
23748;DHT22;12054;53.662;10.126;2023-06-26T12:29:35;26.00;99.90
23748;DHT22;12054;53.662;10.126;2023-06-26T12:32:01;26.00;99.90
23748;DHT22;12054;53.662;10.126;2023-06-26T12:34:30;26.00;99.70
23748;DHT22;12054;53.662;10.126;2023-06-26T12:37:01;26.00;99.40
23748;DHT22;12054;53.662;10.126;2023-06-26T12:39:27;26.00;99.10
23748;DHT22;12054;53.662;10.126;2023-06-26T12:41:59;26.00;98.90
23748;DHT22;12054;53.662;10.126;2023-06-26T12:44:28;25.90;98.50
23748;DHT22;12054;53.662;10.126;2023-06-26T12:47:00;25.90;98.40
23748;DHT22;12054;53.662;10.126;2023-06-26T12:49:33;25.90;98.40
23748;DHT22;12054;53.662;10.126;2023-06-26T12:52:00;25.90;98.10
23748;DHT22;12054;53.662;10.126;2023-06-26T12:54:26;26.00;97.90
23748;DHT22;12054;53.662;10.126;2023-06-26T12:56:52;26.00;97.80
23748;DHT22;12054;53.662;10.126;2023-06-26T12:59:18;26.10;97.60
23748;DHT22;12054;53.662;10.126;2023-06-26T13:01:43;26.10;97.40
23748;DHT22;12054;53.662;10.126;2023-06-26T13:04:09;26.10;97.20
23748;DHT22;12054;53.662;10.126;2023-06-26T13:06:36;26.10;97.10
23748;DHT22;12054;53.662;10.126;2023-06-26T13:09:01;26.10;97.00
23748;DHT22;12054;53.662;10.126;2023-06-26T13:11:30;26.00;96.80
23748;DHT22;12054;53.662;10.126;2023-06-26T13:13:55;26.00;96.60
23748;DHT22;12054;53.662;10.126;2023-06-26T13:16:21;26.00;96.30
23748;DHT22;12054;53.662;10.126;2023-06-26T13:18:46;26.00;95.90
23748;DHT22;12054;53.662;10.126;2023-06-26T13:21:12;26.00;95.50
23748;DHT22;12054;53.662;10.126;2023-06-26T13:23:38;26.10;95.60
23748;DHT22;12054;53.662;10.126;2023-06-26T13:26:04;26.10;95.50
23748;DHT22;12054;53.662;10.126;2023-06-26T13:28:30;26.00;95.70
23748;DHT22;12054;53.662;10.126;2023-06-26T13:30:56;26.10;95.20
23748;DHT22;12054;53.662;10.126;2023-06-26T13:33:22;26.10;95.00
23748;DHT22;12054;53.662;10.126;2023-06-26T13:35:53;26.00;94.70
23748;DHT22;12054;53.662;10.126;2023-06-26T13:38:20;26.00;94.40
23748;DHT22;12054;53.662;10.126;2023-06-26T13:40:52;26.00;94.20
23748;DHT22;12054;53.662;10.126;2023-06-26T13:43:20;26.00;94.00
23748;DHT22;12054;53.662;10.126;2023-06-26T13:45:45;25.90;93.80
23748;DHT22;12054;53.662;10.126;2023-06-26T13:48:11;25.90;93.70
23748;DHT22;12054;53.662;10.126;2023-06-26T13:50:36;25.90;93.60
23748;DHT22;12054;53.662;10.126;2023-06-26T13:53:02;25.90;93.40
23748;DHT22;12054;53.662;10.126;2023-06-26T13:55:27;25.90;93.10
23748;DHT22;12054;53.662;10.126;2023-06-26T13:57:53;25.90;93.20
23748;DHT22;12054;53.662;10.126;2023-06-26T14:00:18;25.80;92.90
23748;DHT22;12054;53.662;10.126;2023-06-26T14:02:47;25.80;92.90
23748;DHT22;12054;53.662;10.126;2023-06-26T14:05:12;25.80;92.90
23748;DHT22;12054;53.662;10.126;2023-06-26T14:07:38;25.80;92.70
23748;DHT22;12054;53.662;10.126;2023-06-26T14:10:04;25.70;92.20
23748;DHT22;12054;53.662;10.126;2023-06-26T14:12:31;25.70;92.10
23748;DHT22;12054;53.662;10.126;2023-06-26T14:14:57;25.70;91.90
23748;DHT22;12054;53.662;10.126;2023-06-26T14:17:22;25.80;91.80
23748;DHT22;12054;53.662;10.126;2023-06-26T14:19:51;25.80;91.70
23748;DHT22;12054;53.662;10.126;2023-06-26T14:22:17;25.90;91.70
23748;DHT22;12054;53.662;10.126;2023-06-26T14:24:43;25.90;91.40
23748;DHT22;12054;53.662;10.126;2023-06-26T14:27:08;25.90;91.40
23748;DHT22;12054;53.662;10.126;2023-06-26T14:29:35;25.90;91.30
23748;DHT22;12054;53.662;10.126;2023-06-26T14:32:01;25.80;90.90
23748;DHT22;12054;53.662;10.126;2023-06-26T14:34:26;25.80;90.70
23748;DHT22;12054;53.662;10.126;2023-06-26T14:36:52;25.80;90.50
23748;DHT22;12054;53.662;10.126;2023-06-26T14:39:17;25.70;90.40
23748;DHT22;12054;53.662;10.126;2023-06-26T14:41:43;25.60;90.20
23748;DHT22;12054;53.662;10.126;2023-06-26T14:44:08;25.50;90.20
23748;DHT22;12054;53.662;10.126;2023-06-26T14:46:36;25.50;90.30
23748;DHT22;12054;53.662;10.126;2023-06-26T14:49:02;25.40;90.00
23748;DHT22;12054;53.662;10.126;2023-06-26T14:51:28;25.40;89.80
23748;DHT22;12054;53.662;10.126;2023-06-26T14:53:54;25.40;90.00
23748;DHT22;12054;53.662;10.126;2023-06-26T14:56:19;25.40;90.10
23748;DHT22;12054;53.662;10.126;2023-06-26T14:58:45;25.30;90.20
23748;DHT22;12054;53.662;10.126;2023-06-26T15:01:12;25.30;90.00
23748;DHT22;12054;53.662;10.126;2023-06-26T15:03:41;25.20;90.00
23748;DHT22;12054;53.662;10.126;2023-06-26T15:06:06;25.20;90.10
23748;DHT22;12054;53.662;10.126;2023-06-26T15:08:32;25.10;90.20
23748;DHT22;12054;53.662;10.126;2023-06-26T15:10:59;25.10;90.30
23748;DHT22;12054;53.662;10.126;2023-06-26T15:13:25;25.10;90.60
23748;DHT22;12054;53.662;10.126;2023-06-26T15:15:50;25.10;90.70
23748;DHT22;12054;53.662;10.126;2023-06-26T15:18:16;25.00;90.90
23748;DHT22;12054;53.662;10.126;2023-06-26T15:20:42;25.00;91.10
23748;DHT22;12054;53.662;10.126;2023-06-26T15:23:07;25.00;91.10
23748;DHT22;12054;53.662;10.126;2023-06-26T15:25:32;25.00;91.10
23748;DHT22;12054;53.662;10.126;2023-06-26T15:28:00;25.00;91.00
23748;DHT22;12054;53.662;10.126;2023-06-26T15:30:25;25.00;90.80
23748;DHT22;12054;53.662;10.126;2023-06-26T15:32:51;24.90;90.90
23748;DHT22;12054;53.662;10.126;2023-06-26T15:35:17;24.90;90.60
23748;DHT22;12054;53.662;10.126;2023-06-26T15:37:42;24.80;90.60
23748;DHT22;12054;53.662;10.126;2023-06-26T15:40:13;24.70;90.60
23748;DHT22;12054;53.662;10.126;2023-06-26T15:42:46;24.80;90.70